Decoded Metar for KLCH (LAKE CHARLES in LA, USA) (IATA:LCH) | Meteo·Mobile Aviation Weather
aviador You're here:

KLCH Decoded Metar

LAKE CHARLES in LA, USA
Report Time2019-04-18 19:53:00
UTC Time2019-04-18 20:20:38
Flight Rules mvfr MVFR
Wind360° at 08 kt
W.Decomp.*RWY 33: 7.1 kt HW 3.6 kt RCW
RWY 05: 4.8 kt HW 6.4 kt LCW
Visibility9999 m
Phenomena:N/A
Clouds:Broken 010 Hf
Overcast 015 Hf
Expected CloudBase > 800 ft AGL from Temp-Dew spread
Ceiling1,000 ft
Temp19°C (ISA +4)
Dew Point17°C (88% RH)
AAT18.5°C
QNH1005 hPa
Density Alt1,014 ft
Elevation13 ft
Report Wrong Elevation
Raw Report
KLCH 181953Z 36008KT 10SM BKN010 OVC015 19/17 A2969 RMK AO2 SLP060
T01890167=

Extra information for KLCH:More info

Metar Taf Metar & Taf Last 4 Metars F.Rules Stats Wind Profile Meteogram Temp Stats Airport Information Weather charts Add Link Nearby VenuesMetar ALERT Operation Metar Decoded Social comments

AIRNAV info for KLCH